createdAt,value
2022-12-01T00:01:20.456Z,84.06
2022-12-01T00:03:48.269Z,83.75
2022-12-01T00:06:17.905Z,83.95
2022-12-01T00:09:06.641Z,83.84
2022-12-01T00:11:35.181Z,83.91
2022-12-01T00:14:03.151Z,83.67
2022-12-01T00:16:31.777Z,83.65
2022-12-01T00:18:59.877Z,83.58
2022-12-01T00:21:27.815Z,83.62
2022-12-01T00:23:57.016Z,83.59
2022-12-01T00:26:25.480Z,83.94
2022-12-01T00:28:54.371Z,84.03
2022-12-01T00:31:22.241Z,83.95
2022-12-01T00:33:50.483Z,83.92
2022-12-01T00:36:18.449Z,84.14
2022-12-01T00:38:46.433Z,84.28
2022-12-01T00:41:14.428Z,84.30
2022-12-01T00:43:42.196Z,84.64
2022-12-01T00:46:10.102Z,84.69
2022-12-01T00:48:37.880Z,84.49
2022-12-01T00:51:05.763Z,84.63
2022-12-01T00:53:33.458Z,84.58
2022-12-01T00:56:01.264Z,84.49
2022-12-01T00:58:29.088Z,84.36
2022-12-01T01:00:58.137Z,84.09
2022-12-01T01:03:26.623Z,84.01
2022-12-01T01:05:54.449Z,83.85
2022-12-01T01:08:22.294Z,83.98
2022-12-01T01:10:50.484Z,83.94
2022-12-01T01:13:18.314Z,83.88
2022-12-01T01:15:46.192Z,83.40
2022-12-01T01:18:13.997Z,83.43
2022-12-01T01:20:41.775Z,83.70
2022-12-01T01:23:09.661Z,83.86
2022-12-01T01:25:37.400Z,84.14
2022-12-01T01:28:05.151Z,84.19
2022-12-01T01:30:32.986Z,84.26
2022-12-01T01:33:00.777Z,84.03
2022-12-01T01:35:28.594Z,83.92
2022-12-01T01:37:56.366Z,84.11
2022-12-01T01:40:24.159Z,84.14
2022-12-01T01:42:52.115Z,83.94
2022-12-01T01:45:22.444Z,83.73
2022-12-01T01:47:52.055Z,83.54
2022-12-01T01:50:22.742Z,83.61
2022-12-01T01:53:11.099Z,83.54
2022-12-01T01:55:39.110Z,83.26
2022-12-01T01:58:08.460Z,83.47
2022-12-01T02:00:38.000Z,83.61
2022-12-01T02:03:06.066Z,83.52
2022-12-01T02:05:35.791Z,83.47
2022-12-01T02:08:04.386Z,83.51
2022-12-01T02:10:52.611Z,83.69
2022-12-01T02:13:20.305Z,83.84
2022-12-01T02:15:53.980Z,83.94
2022-12-01T02:18:25.884Z,83.82
2022-12-01T02:21:12.819Z,83.53
2022-12-01T02:24:00.150Z,83.48
2022-12-01T02:26:36.474Z,83.67
2022-12-01T02:29:13.529Z,83.88
2022-12-01T02:31:50.941Z,83.87
2022-12-01T02:34:27.972Z,83.98
2022-12-01T02:37:05.809Z,83.96
2022-12-01T02:39:35.887Z,83.92
2022-12-01T02:42:52.434Z,84.04
2022-12-01T02:45:26.280Z,84.15
2022-12-01T02:47:56.109Z,84.48
2022-12-01T02:50:25.515Z,84.44
2022-12-01T02:52:53.483Z,84.44
2022-12-01T02:55:21.303Z,84.54
2022-12-01T02:57:49.049Z,84.62
2022-12-01T03:00:17.979Z,84.77
2022-12-01T03:02:56.965Z,84.81
2022-12-01T03:05:40.240Z,84.83
2022-12-01T03:08:33.090Z,84.91
2022-12-01T03:11:01.962Z,84.93
2022-12-01T03:13:32.754Z,84.98
2022-12-01T03:16:12.490Z,84.88
2022-12-01T03:18:43.722Z,84.62
2022-12-01T03:21:20.812Z,84.30
2022-12-01T03:23:52.031Z,83.97
2022-12-01T03:26:22.043Z,84.06
2022-12-01T03:28:52.388Z,84.01
2022-12-01T03:31:22.113Z,83.71
2022-12-01T03:33:52.755Z,83.64
2022-12-01T03:36:34.048Z,83.73
2022-12-01T03:39:05.014Z,83.75
2022-12-01T03:41:39.214Z,83.92
2022-12-01T03:44:15.467Z,83.82
2022-12-01T03:46:59.884Z,83.78
2022-12-01T03:49:28.295Z,83.80
2022-12-01T03:51:56.157Z,83.44
2022-12-01T03:54:45.379Z,83.65
2022-12-01T03:57:28.806Z,83.77
2022-12-01T03:59:56.848Z,83.98
2022-12-01T04:02:27.893Z,83.99
2022-12-01T04:04:55.912Z,84.16
2022-12-01T04:07:23.833Z,84.05
2022-12-01T04:09:51.823Z,83.90
2022-12-01T04:12:32.984Z,83.54
2022-12-01T04:15:02.433Z,83.22
2022-12-01T04:17:30.328Z,83.13
2022-12-01T04:19:58.135Z,82.93
2022-12-01T04:22:26.386Z,82.92
2022-12-01T04:24:54.140Z,82.65
2022-12-01T04:27:22.162Z,82.68
2022-12-01T04:29:50.042Z,82.89
2022-12-01T04:32:18.147Z,82.86
2022-12-01T04:34:45.867Z,82.87
2022-12-01T04:37:13.609Z,82.53
2022-12-01T04:39:44.041Z,82.59
2022-12-01T04:42:12.009Z,82.81
2022-12-01T04:44:39.758Z,83.01
2022-12-01T04:47:07.680Z,82.97
2022-12-01T04:49:37.211Z,82.98
2022-12-01T04:52:05.151Z,83.16
2022-12-01T04:54:33.071Z,83.08
2022-12-01T04:57:00.776Z,82.83
2022-12-01T04:59:28.620Z,82.76
2022-12-01T05:01:56.358Z,82.72
2022-12-01T05:04:24.173Z,82.49
2022-12-01T05:06:54.183Z,82.36
2022-12-01T05:09:22.063Z,82.36
2022-12-01T05:11:49.873Z,82.39
2022-12-01T05:14:17.717Z,82.54
2022-12-01T05:16:45.687Z,82.71
2022-12-01T05:19:32.426Z,82.79
2022-12-01T05:22:00.244Z,82.95
2022-12-01T05:24:28.159Z,82.75
2022-12-01T05:26:56.027Z,83.00
2022-12-01T05:29:23.779Z,83.29
2022-12-01T05:31:51.757Z,83.42
2022-12-01T05:34:19.689Z,83.26
2022-12-01T05:36:47.371Z,83.43
2022-12-01T05:39:15.113Z,83.06
2022-12-01T05:41:42.806Z,83.01
2022-12-01T05:44:10.729Z,83.10
2022-12-01T05:46:38.516Z,83.03
2022-12-01T05:49:06.180Z,83.10
2022-12-01T05:51:34.005Z,83.03
2022-12-01T05:54:02.023Z,82.99
2022-12-01T05:56:31.448Z,83.11
2022-12-01T05:58:59.176Z,83.06
2022-12-01T06:01:27.005Z,83.16
2022-12-01T06:03:54.995Z,83.12
2022-12-01T06:06:22.860Z,83.16
2022-12-01T06:08:50.769Z,83.15
2022-12-01T06:11:18.629Z,83.14
2022-12-01T06:13:46.364Z,83.09
2022-12-01T06:16:14.049Z,83.10
2022-12-01T06:18:41.871Z,83.23
2022-12-01T06:21:09.695Z,83.28
2022-12-01T06:23:37.583Z,83.32
2022-12-01T06:26:05.391Z,83.20
2022-12-01T06:28:33.188Z,83.22
2022-12-01T06:31:03.376Z,83.50
2022-12-01T06:33:32.090Z,83.80
2022-12-01T06:36:00.951Z,83.91
2022-12-01T06:38:33.037Z,84.15
2022-12-01T06:41:05.605Z,83.99
2022-12-01T06:43:35.796Z,84.00
2022-12-01T06:46:06.122Z,84.00
2022-12-01T06:48:34.650Z,83.84
2022-12-01T06:51:02.450Z,83.73
2022-12-01T06:53:30.492Z,83.69
2022-12-01T06:56:01.870Z,83.50
2022-12-01T06:58:30.309Z,83.60
2022-12-01T07:00:59.169Z,83.58
2022-12-01T07:03:27.277Z,83.52
2022-12-01T07:05:58.984Z,83.40
2022-12-01T07:08:31.995Z,83.54
2022-12-01T07:10:59.743Z,83.53
2022-12-01T07:13:33.044Z,83.50
2022-12-01T07:16:03.711Z,83.51
2022-12-01T07:18:32.422Z,83.25
2022-12-01T07:21:04.477Z,83.35
2022-12-01T07:23:32.258Z,83.48
2022-12-01T07:26:01.910Z,83.34
2022-12-01T07:28:29.759Z,83.28
2022-12-01T07:31:01.486Z,82.94
2022-12-01T07:33:29.235Z,82.86
2022-12-01T07:35:57.504Z,83.08
2022-12-01T07:38:25.218Z,82.72
2022-12-01T07:40:52.989Z,82.57
2022-12-01T07:43:20.771Z,82.31
2022-12-01T07:45:49.531Z,81.85
2022-12-01T07:48:17.280Z,81.57
2022-12-01T07:50:45.048Z,81.20
2022-12-01T07:53:12.770Z,81.14
2022-12-01T07:55:40.499Z,80.74
2022-12-01T07:58:08.201Z,80.82
2022-12-01T08:00:35.966Z,80.94
2022-12-01T08:03:06.165Z,80.67
2022-12-01T08:05:34.076Z,80.48
2022-12-01T08:08:01.980Z,80.62
2022-12-01T08:10:29.899Z,80.46
2022-12-01T08:12:57.726Z,80.10
2022-12-01T08:15:25.466Z,80.23
2022-12-01T08:17:53.253Z,80.32
2022-12-01T08:20:24.102Z,80.00
2022-12-01T08:22:52.136Z,79.92
2022-12-01T08:25:19.898Z,79.81
2022-12-01T08:27:47.696Z,79.99
2022-12-01T08:30:15.523Z,80.07
2022-12-01T08:32:43.346Z,79.92
2022-12-01T08:35:11.431Z,79.67
2022-12-01T08:37:39.144Z,79.92
2022-12-01T08:40:07.173Z,79.70
2022-12-01T08:42:35.248Z,79.71
2022-12-01T08:45:03.068Z,79.82
2022-12-01T08:47:30.875Z,79.92
2022-12-01T08:49:58.664Z,79.84
2022-12-01T08:52:31.224Z,79.83
2022-12-01T08:54:59.051Z,80.07
2022-12-01T08:57:28.707Z,79.99
2022-12-01T08:59:56.474Z,80.23
2022-12-01T09:02:24.786Z,80.28
2022-12-01T09:04:52.610Z,80.37
2022-12-01T09:07:26.080Z,80.15
2022-12-01T09:09:54.371Z,80.47
2022-12-01T09:12:22.530Z,80.57
2022-12-01T09:14:50.191Z,80.50
2022-12-01T09:17:17.942Z,80.47
2022-12-01T09:19:45.693Z,80.44
2022-12-01T09:22:13.459Z,80.49
2022-12-01T09:24:41.130Z,80.60
2022-12-01T09:27:09.322Z,80.53
2022-12-01T09:29:37.051Z,80.77
2022-12-01T09:32:04.770Z,81.06
2022-12-01T09:34:32.637Z,80.86
2022-12-01T09:37:00.422Z,80.77
2022-12-01T09:39:28.347Z,80.95
2022-12-01T09:42:08.271Z,81.05
2022-12-01T09:44:40.391Z,81.09
2022-12-01T09:47:13.011Z,80.87
2022-12-01T09:50:01.105Z,80.88
2022-12-01T09:52:32.622Z,81.06
2022-12-01T09:55:01.012Z,80.87
2022-12-01T09:57:31.584Z,80.74
2022-12-01T10:00:02.563Z,80.82
2022-12-01T10:02:36.149Z,80.67
2022-12-01T10:05:05.974Z,80.55
2022-12-01T10:07:36.863Z,80.45
2022-12-01T10:10:13.298Z,80.24
2022-12-01T10:12:42.325Z,80.19
2022-12-01T10:15:13.004Z,80.15
2022-12-01T10:17:46.797Z,79.99
2022-12-01T10:20:17.317Z,79.90
2022-12-01T10:23:04.805Z,80.51
2022-12-01T10:25:51.666Z,80.18
2022-12-01T10:28:38.274Z,80.17
2022-12-01T10:31:14.889Z,79.99
2022-12-01T10:33:51.916Z,79.76
2022-12-01T10:36:19.933Z,79.76
2022-12-01T10:38:47.660Z,79.53
2022-12-01T10:41:18.788Z,79.27
2022-12-01T10:43:49.246Z,79.14
2022-12-01T10:46:38.825Z,78.88
2022-12-01T10:49:11.878Z,78.20
2022-12-01T10:51:58.123Z,77.94
2022-12-01T10:54:52.104Z,77.77
2022-12-01T10:57:19.871Z,77.17
2022-12-01T10:59:56.875Z,76.75
2022-12-01T11:02:26.709Z,76.44
2022-12-01T11:04:57.561Z,76.03
2022-12-01T11:07:29.784Z,75.98
2022-12-01T11:09:57.444Z,75.44
2022-12-01T11:12:25.238Z,75.03
2022-12-01T11:14:55.453Z,74.45
2022-12-01T11:17:28.904Z,74.25
2022-12-01T11:19:57.255Z,73.93
2022-12-01T11:22:26.623Z,73.59
2022-12-01T11:24:54.383Z,73.00
2022-12-01T11:27:23.507Z,72.44
2022-12-01T11:30:11.524Z,72.04
2022-12-01T11:32:40.051Z,72.11
2022-12-01T11:35:08.208Z,71.50
2022-12-01T11:37:38.037Z,70.75
2022-12-01T11:40:32.328Z,70.91
2022-12-01T11:43:01.966Z,70.42
2022-12-01T11:45:39.592Z,70.18
2022-12-01T11:48:18.876Z,69.82
2022-12-01T11:51:04.979Z,69.80
2022-12-01T11:53:34.609Z,69.66
2022-12-01T11:56:14.823Z,69.12
2022-12-01T11:58:43.499Z,68.88
2022-12-01T12:01:29.982Z,68.68
2022-12-01T12:04:09.768Z,68.32
2022-12-01T12:06:55.848Z,67.99
2022-12-01T12:09:23.595Z,67.89
2022-12-01T12:12:05.228Z,68.16
2022-12-01T12:14:41.611Z,67.95
2022-12-01T12:17:19.918Z,67.46
2022-12-01T12:22:44.404Z,67.08
2022-12-01T12:25:37.190Z,66.28
2022-12-01T12:28:04.890Z,66.25
2022-12-01T12:30:37.220Z,66.21
2022-12-01T12:33:08.503Z,66.06
2022-12-01T12:35:39.389Z,65.57
2022-12-01T12:38:27.334Z,65.40
2022-12-01T12:40:57.956Z,65.77
2022-12-01T12:44:01.246Z,65.80
2022-12-01T12:46:44.476Z,65.80
2022-12-01T12:49:20.395Z,65.99
2022-12-01T12:51:51.718Z,65.55
2022-12-01T12:54:19.556Z,65.10
2022-12-01T12:56:50.576Z,65.30
2022-12-01T12:59:36.707Z,65.70
2022-12-01T13:02:11.391Z,66.04
2022-12-01T13:04:45.264Z,65.86
2022-12-01T13:07:13.035Z,66.04
2022-12-01T13:09:43.846Z,66.28
2022-12-01T13:12:18.550Z,66.48
2022-12-01T13:14:48.995Z,66.54
2022-12-01T13:17:16.775Z,66.78
2022-12-01T13:19:45.956Z,66.80
2022-12-01T13:22:14.799Z,66.76
2022-12-01T13:24:42.892Z,67.15
2022-12-01T13:27:10.657Z,67.29
2022-12-01T13:29:43.972Z,67.44
2022-12-01T13:32:26.627Z,67.59
2022-12-01T13:34:54.417Z,67.42
2022-12-01T13:37:31.053Z,67.47
2022-12-01T13:40:30.998Z,67.70
2022-12-01T13:43:08.977Z,67.74
2022-12-01T13:45:40.082Z,67.74
2022-12-01T13:48:26.723Z,68.21
2022-12-01T13:50:54.491Z,68.30
2022-12-01T13:53:28.162Z,68.26
2022-12-01T13:55:55.944Z,68.43
2022-12-01T13:58:26.192Z,68.61
2022-12-01T14:01:14.063Z,68.77
2022-12-01T14:03:51.502Z,68.64
2022-12-01T14:06:22.258Z,68.70
2022-12-01T14:08:50.257Z,68.72
2022-12-01T14:11:21.037Z,68.83
2022-12-01T14:13:57.846Z,68.66
2022-12-01T14:16:26.250Z,68.53
2022-12-01T14:18:55.741Z,68.77
2022-12-01T14:21:42.728Z,68.95
2022-12-01T14:24:20.132Z,69.31
2022-12-01T14:26:49.440Z,69.36
2022-12-01T14:29:28.738Z,69.46
2022-12-01T14:32:04.600Z,69.68
2022-12-01T14:34:34.334Z,69.79
2022-12-01T14:37:05.116Z,69.64
2022-12-01T14:39:38.289Z,69.92
2022-12-01T14:42:35.492Z,70.11
2022-12-01T14:45:04.054Z,70.30
2022-12-01T14:47:43.660Z,70.57
2022-12-01T14:50:12.321Z,70.92
2022-12-01T14:53:04.352Z,71.17
2022-12-01T14:55:40.561Z,71.03
2022-12-01T14:58:14.510Z,71.14
2022-12-01T15:00:52.700Z,71.65
2022-12-01T15:03:20.716Z,71.96
2022-12-01T15:05:52.724Z,72.00
2022-12-01T15:11:20.741Z,71.82
2022-12-01T15:13:50.007Z,71.63
2022-12-01T15:16:19.965Z,71.54
2022-12-01T15:18:47.974Z,71.41
2022-12-01T15:21:15.733Z,71.45
2022-12-01T15:23:52.924Z,71.29
2022-12-01T15:26:21.587Z,71.40
2022-12-01T15:28:50.111Z,71.77
2022-12-01T15:31:18.000Z,71.63
2022-12-01T15:33:52.076Z,71.67
2022-12-01T15:36:19.850Z,71.66
2022-12-01T15:38:47.885Z,71.72
2022-12-01T15:41:28.976Z,71.94
2022-12-01T15:43:58.951Z,71.97
2022-12-01T15:46:31.214Z,72.00
2022-12-01T15:49:09.288Z,72.26
2022-12-01T15:51:37.076Z,72.42
2022-12-01T15:54:04.916Z,72.66
2022-12-01T15:56:38.036Z,72.74
2022-12-01T15:59:16.468Z,72.92
2022-12-01T16:01:45.080Z,72.95
2022-12-01T16:04:22.529Z,73.23
2022-12-01T16:06:56.604Z,73.52
2022-12-01T16:09:35.323Z,73.72
2022-12-01T16:12:23.411Z,73.80
2022-12-01T16:14:55.814Z,73.92
2022-12-01T16:17:24.253Z,74.14
2022-12-01T16:20:11.467Z,74.12
2022-12-01T16:22:39.220Z,74.28
2022-12-01T16:25:07.120Z,74.28
2022-12-01T16:27:36.845Z,74.27
2022-12-01T16:30:06.974Z,74.18
2022-12-01T16:32:39.197Z,74.19
2022-12-01T16:35:21.579Z,74.09
2022-12-01T16:37:49.363Z,73.95
2022-12-01T16:40:17.309Z,73.98
2022-12-01T16:42:45.127Z,73.98
2022-12-01T16:45:14.826Z,73.92
2022-12-01T16:47:43.270Z,73.91
2022-12-01T16:50:15.018Z,74.09
2022-12-01T16:52:44.696Z,73.73
2022-12-01T16:55:51.771Z,73.80
2022-12-01T16:58:19.559Z,73.68
2022-12-01T17:00:53.881Z,73.72
2022-12-01T17:03:24.006Z,73.87
2022-12-01T17:05:52.588Z,74.04
2022-12-01T17:08:20.677Z,74.04
2022-12-01T17:10:50.433Z,74.24
2022-12-01T17:13:19.154Z,74.27
2022-12-01T17:15:48.370Z,74.47
2022-12-01T17:18:17.014Z,74.55
2022-12-01T17:20:44.823Z,74.43
2022-12-01T17:23:12.666Z,74.45
2022-12-01T17:25:41.727Z,74.73
2022-12-01T17:28:09.510Z,74.84
2022-12-01T17:30:37.383Z,74.82
2022-12-01T17:33:05.095Z,75.11
2022-12-01T17:35:32.878Z,75.31
2022-12-01T17:38:00.655Z,75.47
2022-12-01T17:40:28.447Z,75.36
2022-12-01T17:42:56.198Z,75.25
2022-12-01T17:45:24.121Z,75.79
2022-12-01T17:47:51.807Z,76.25
2022-12-01T17:50:19.695Z,76.35
2022-12-01T17:52:47.396Z,76.01
2022-12-01T17:55:15.170Z,75.87
2022-12-01T17:57:42.900Z,75.52
2022-12-01T18:00:11.070Z,75.41
2022-12-01T18:02:38.893Z,75.31
2022-12-01T18:05:07.145Z,75.13
2022-12-01T18:07:35.003Z,75.49
2022-12-01T18:10:02.832Z,75.57
2022-12-01T18:12:30.524Z,75.55
2022-12-01T18:14:58.217Z,75.19
2022-12-01T18:17:26.198Z,75.32
2022-12-01T18:19:54.052Z,75.00
2022-12-01T18:22:22.877Z,75.04
2022-12-01T18:24:50.783Z,75.30
2022-12-01T18:27:18.604Z,75.27
2022-12-01T18:29:46.289Z,75.31
2022-12-01T18:32:14.182Z,75.18
2022-12-01T18:34:42.711Z,75.18
2022-12-01T18:37:10.459Z,75.17
2022-12-01T18:39:38.106Z,75.06
2022-12-01T18:42:06.005Z,75.29
2022-12-01T18:44:33.768Z,75.20
2022-12-01T18:47:03.769Z,75.51
2022-12-01T18:49:31.752Z,75.65
2022-12-01T18:52:00.491Z,75.80
2022-12-01T18:54:28.146Z,76.11
2022-12-01T18:56:58.842Z,76.23
2022-12-01T18:59:27.110Z,76.11
2022-12-01T19:01:55.005Z,75.91
2022-12-01T19:04:22.799Z,75.86
2022-12-01T19:06:50.608Z,75.92
2022-12-01T19:09:18.354Z,76.28
2022-12-01T19:11:46.141Z,76.20
2022-12-01T19:14:15.897Z,76.32
2022-12-01T19:16:44.408Z,76.14
2022-12-01T19:19:12.670Z,76.27
2022-12-01T19:21:40.829Z,76.30
2022-12-01T19:24:08.692Z,76.27
2022-12-01T19:26:36.601Z,76.49
2022-12-01T19:29:04.292Z,76.90
2022-12-01T19:31:32.089Z,76.95
2022-12-01T19:33:59.918Z,77.11
2022-12-01T19:36:28.176Z,77.26
2022-12-01T19:38:57.508Z,77.49
2022-12-01T19:41:25.679Z,77.42
2022-12-01T19:43:53.896Z,77.24
2022-12-01T19:46:23.174Z,77.22
2022-12-01T19:48:55.540Z,77.66
2022-12-01T19:51:25.324Z,77.47
2022-12-01T19:53:54.042Z,77.26
2022-12-01T19:56:23.196Z,76.99
2022-12-01T19:58:50.890Z,77.22
2022-12-01T20:01:19.224Z,77.04
2022-12-01T20:03:51.129Z,76.99
2022-12-01T20:06:20.139Z,76.99
2022-12-01T20:08:47.977Z,76.93
2022-12-01T20:11:16.115Z,77.25
2022-12-01T20:13:44.979Z,77.40
2022-12-01T20:16:14.342Z,77.47
2022-12-01T20:18:42.648Z,77.44
2022-12-01T20:21:16.003Z,77.42
2022-12-01T20:23:44.675Z,77.61
2022-12-01T20:26:12.563Z,77.59
2022-12-01T20:28:40.971Z,77.65
2022-12-01T20:31:10.963Z,77.75
2022-12-01T20:33:39.811Z,77.85
2022-12-01T20:36:07.967Z,77.91
2022-12-01T20:38:36.819Z,78.19
2022-12-01T20:41:05.447Z,78.59
2022-12-01T20:43:33.859Z,78.68
2022-12-01T20:46:02.073Z,78.36
2022-12-01T20:48:29.915Z,78.48
2022-12-01T20:50:59.788Z,78.37
2022-12-01T20:53:27.664Z,78.20
2022-12-01T20:55:55.908Z,78.28
2022-12-01T20:58:23.691Z,78.48
2022-12-01T21:00:51.503Z,78.21
2022-12-01T21:03:19.223Z,78.14
2022-12-01T21:05:46.959Z,78.17
2022-12-01T21:08:14.723Z,78.37
2022-12-01T21:10:47.019Z,78.30
2022-12-01T21:13:33.351Z,78.39
2022-12-01T21:16:07.001Z,78.42
2022-12-01T21:18:40.357Z,78.48
2022-12-01T21:21:34.311Z,78.43
2022-12-01T21:24:10.069Z,78.43
2022-12-01T21:26:38.745Z,78.82
2022-12-01T21:29:17.252Z,79.00
2022-12-01T21:31:45.444Z,79.14
2022-12-01T21:34:17.009Z,79.16
2022-12-01T21:36:45.992Z,79.26
2022-12-01T21:39:15.743Z,79.50
2022-12-01T21:41:43.751Z,79.56
2022-12-01T21:44:13.697Z,79.62
2022-12-01T21:46:42.545Z,80.02
2022-12-01T21:49:13.317Z,80.04
2022-12-01T21:51:41.075Z,80.06
2022-12-01T21:54:16.725Z,80.03
2022-12-01T21:56:44.585Z,79.62
2022-12-01T21:59:22.827Z,79.46
2022-12-01T22:01:54.567Z,79.28
2022-12-01T22:04:23.497Z,79.43
2022-12-01T22:06:52.316Z,79.74
2022-12-01T22:09:24.974Z,79.60
2022-12-01T22:12:12.931Z,79.65
2022-12-01T22:14:40.969Z,79.76
2022-12-01T22:17:16.304Z,79.48
2022-12-01T22:20:15.070Z,79.48
2022-12-01T22:22:42.796Z,79.28
2022-12-01T22:25:16.541Z,79.45
2022-12-01T22:27:44.293Z,79.29
2022-12-01T22:30:22.519Z,79.53
2022-12-01T22:32:58.634Z,79.71
2022-12-01T22:35:29.120Z,80.02
2022-12-01T22:38:09.427Z,79.98
2022-12-01T22:40:37.098Z,79.96
2022-12-01T22:43:17.389Z,80.31
2022-12-01T22:45:46.809Z,80.49
2022-12-01T22:48:23.796Z,80.70
2022-12-01T22:50:52.180Z,80.73
2022-12-01T22:53:30.379Z,80.56
2022-12-01T22:56:00.583Z,80.57
2022-12-01T22:58:32.036Z,80.51
2022-12-01T23:01:07.788Z,80.30
2022-12-01T23:03:36.203Z,80.33
2022-12-01T23:06:24.003Z,80.42
2022-12-01T23:08:51.706Z,80.40
2022-12-01T23:11:19.563Z,80.68
2022-12-01T23:13:47.358Z,80.69
2022-12-01T23:16:15.145Z,80.99
2022-12-01T23:18:42.961Z,80.74
2022-12-01T23:21:10.764Z,80.58
2022-12-01T23:23:38.609Z,80.77
2022-12-01T23:26:07.798Z,81.01
2022-12-01T23:28:37.046Z,81.09
2022-12-01T23:31:04.791Z,81.22
2022-12-01T23:33:33.730Z,81.22
2022-12-01T23:36:10.743Z,81.33
2022-12-01T23:38:39.886Z,81.74
2022-12-01T23:41:10.797Z,81.74
2022-12-01T23:43:40.360Z,81.69
2022-12-01T23:46:10.841Z,81.92
2022-12-01T23:48:59.122Z,81.82
2022-12-01T23:51:32.049Z,81.59
2022-12-01T23:54:01.387Z,81.46
2022-12-01T23:56:31.695Z,80.98
2022-12-01T23:59:00.893Z,80.76
